This is the latest recevied weather packets stored in our database for station/object DL4JCP-6. If no packets are shown the sender has not sent any weather packets the latest 10 day(s).
| Time | Temp. | Humidity | Pressure | Rain* | Wind** | Luminosity | Snow |
|---|---|---|---|---|---|---|---|
| 1777709899 | 18.89° C | 40% | 1025.8 hPa | 0 mm | - | - | - |
| 1777708999 | 18.89° C | 41% | 1026.1 hPa | 0 mm | - | - | - |
| 1777708098 | 18.33° C | 41% | 1026 hPa | 0 mm | - | - | - |
| 1777707198 | 18.33° C | 42% | 1026.1 hPa | 0 mm | - | - | - |
| 1777706295 | 18.89° C | 44% | 1026.3 hPa | 0 mm | - | - | - |
| 1777705395 | 18.33° C | 46% | 1026.5 hPa | 0 mm | - | - | - |
| 1777704495 | 17.78° C | 50% | 1026.5 hPa | 0 mm | - | - | - |
| 1777703595 | 17.22° C | 50% | 1026.7 hPa | 0 mm | - | - | - |
| 1777702695 | 16.67° C | 54% | 1026.9 hPa | 0 mm | - | - | - |
| 1777701798 | 15° C | 66% | 1026.8 hPa | 0 mm | - | - | - |
| 1777700895 | 11.67° C | 78% | 1026.4 hPa | 0 mm | - | - | - |
| 1777699995 | 10° C | 83% | 1026.3 hPa | 0 mm | - | - | - |
| 1777699095 | 7.22° C | 87% | 1025.9 hPa | 0 mm | - | - | - |
| 1777698195 | 5° C | 90% | 1025.7 hPa | 0 mm | - | - | - |
| 1777697295 | 3.89° C | 90% | 1025.7 hPa | 0 mm | - | - | - |
| 1777696395 | 3.33° C | 90% | 1025.8 hPa | 0 mm | - | - | - |
| 1777695495 | 2.22° C | 90% | 1025.6 hPa | 0 mm | - | - | - |
| 1777694595 | 2.22° C | 89% | 1025.7 hPa | 0 mm | - | - | - |
| 1777693695 | 2.22° C | 89% | 1025.7 hPa | 0 mm | - | - | - |
| 1777692794 | 2.22° C | 89% | 1025.8 hPa | 0 mm | - | - | - |
| 1777691894 | 2.22° C | 88% | 1026 hPa | 0 mm | - | - | - |
| 1777690994 | 2.22° C | 89% | 1026.1 hPa | 0 mm | - | - | - |
| 1777690094 | 2.78° C | 88% | 1026.3 hPa | 0 mm | - | - | - |
| 1777689194 | 2.78° C | 88% | 1026.3 hPa | 0 mm | - | - | - |
* Rain latest hour (hover to see other rain measurements)
** Current wind speed in m/s (hover to see current wind gust speed)